createdAt,value
2022-10-12T00:00:12.237Z,17.20
2022-10-12T00:00:24.037Z,17.20
2022-10-12T00:00:37.555Z,17.20
2022-10-12T00:00:50.994Z,17.20
2022-10-12T00:01:02.868Z,17.20
2022-10-12T00:01:14.965Z,17.10
2022-10-12T00:01:30.762Z,17.20
2022-10-12T00:01:42.739Z,17.20
2022-10-12T00:01:54.781Z,17.20
2022-10-12T00:02:07.078Z,17.20
2022-10-12T00:02:19.130Z,17.20
2022-10-12T00:02:30.850Z,17.20
2022-10-12T00:02:42.698Z,17.10
2022-10-12T00:02:58.203Z,17.10
2022-10-12T00:03:13.369Z,17.10
2022-10-12T00:03:26.189Z,17.10
2022-10-12T00:03:38.220Z,17.10
2022-10-12T00:03:50.108Z,17.10
2022-10-12T00:04:01.934Z,17.10
2022-10-12T00:04:14.256Z,17.20
2022-10-12T00:04:26.029Z,17.20
2022-10-12T00:04:39.176Z,17.10
2022-10-12T00:04:51.382Z,17.10
2022-10-12T00:05:03.377Z,17.10
2022-10-12T00:05:15.942Z,17.10
2022-10-12T00:05:28.201Z,17.10
2022-10-12T00:05:39.996Z,17.10
2022-10-12T00:06:02.586Z,17.10
2022-10-12T00:06:20.410Z,17.10
2022-10-12T00:06:32.511Z,17.10
2022-10-12T00:06:44.248Z,17.10
2022-10-12T00:06:56.302Z,17.10
2022-10-12T00:07:08.273Z,17.10
2022-10-12T00:07:21.102Z,17.10
2022-10-12T00:07:33.140Z,17.10
2022-10-12T00:07:45.647Z,17.10
2022-10-12T00:07:57.790Z,17.10
2022-10-12T00:08:09.853Z,17.10
2022-10-12T00:08:21.610Z,17.10
2022-10-12T00:08:34.533Z,17.10
2022-10-12T00:08:46.612Z,17.10
2022-10-12T00:08:58.500Z,17.10
2022-10-12T00:09:10.518Z,17.10
2022-10-12T00:09:22.537Z,17.10
2022-10-12T00:09:34.639Z,17.10
2022-10-12T00:09:47.081Z,17.10
2022-10-12T00:10:00.727Z,17.10
2022-10-12T00:10:12.511Z,17.10
2022-10-12T00:10:24.449Z,17.10
2022-10-12T00:10:41.391Z,17.10
2022-10-12T00:10:53.904Z,17.10
2022-10-12T00:11:06.506Z,17.10
2022-10-12T00:11:20.252Z,17.10
2022-10-12T00:11:32.021Z,17.10
2022-10-12T00:11:45.828Z,17.10
2022-10-12T00:11:57.877Z,17.10
2022-10-12T00:12:11.240Z,17.10
2022-10-12T00:12:23.330Z,17.10
2022-10-12T00:12:35.186Z,17.10
2022-10-12T00:12:46.966Z,17.10
2022-10-12T00:12:59.764Z,17.10
2022-10-12T00:14:03.618Z,17.10
2022-10-12T00:14:15.641Z,17.10
2022-10-12T00:14:27.392Z,17.10
2022-10-12T00:14:39.145Z,17.10
2022-10-12T00:14:51.379Z,17.10
2022-10-12T00:15:03.309Z,17.10
2022-10-12T00:15:15.082Z,17.10
2022-10-12T00:15:26.939Z,17.10
2022-10-12T00:15:41.069Z,17.10
2022-10-12T00:15:53.129Z,17.10
2022-10-12T00:16:07.681Z,17.10
2022-10-12T00:16:20.347Z,17.10
2022-10-12T00:16:32.257Z,17.10
2022-10-12T00:16:45.935Z,17.10
2022-10-12T00:16:58.196Z,17.10
2022-10-12T00:17:10.232Z,17.10
2022-10-12T00:17:21.949Z,17.10
2022-10-12T00:17:37.711Z,17.10
2022-10-12T00:17:49.808Z,17.10
2022-10-12T00:18:01.576Z,17.10
2022-10-12T00:18:15.035Z,17.10
2022-10-12T00:18:27.146Z,17.10
2022-10-12T00:18:39.423Z,17.10
2022-10-12T00:18:53.913Z,17.10
2022-10-12T00:19:31.660Z,17.10
2022-10-12T00:19:43.658Z,17.10
2022-10-12T00:19:55.550Z,17.10
2022-10-12T00:20:11.840Z,17.10
2022-10-12T00:20:23.712Z,17.10
2022-10-12T00:20:35.544Z,17.10
2022-10-12T00:20:48.272Z,17.10
2022-10-12T00:21:04.480Z,17.10
2022-10-12T00:21:16.845Z,17.10
2022-10-12T00:21:29.414Z,17.10
2022-10-12T00:21:42.161Z,17.10
2022-10-12T00:21:54.182Z,17.10
2022-10-12T00:22:07.245Z,17.10
2022-10-12T00:22:20.757Z,17.10
2022-10-12T00:22:32.570Z,17.10
2022-10-12T00:22:44.388Z,17.10
2022-10-12T00:22:56.128Z,17.10
2022-10-12T00:23:08.250Z,17.10
2022-10-12T00:23:20.016Z,17.10
2022-10-12T00:23:31.916Z,17.10
2022-10-12T00:23:44.092Z,17.10
2022-10-12T00:23:59.646Z,17.10
2022-10-12T00:24:12.047Z,17.10
2022-10-12T00:24:23.816Z,17.10
2022-10-12T00:24:39.407Z,17.10
2022-10-12T00:24:54.739Z,17.10
2022-10-12T00:25:07.123Z,17.10
2022-10-12T00:25:18.872Z,17.10
2022-10-12T00:25:30.644Z,17.10
2022-10-12T00:25:42.414Z,17.10
2022-10-12T00:25:54.401Z,17.10
2022-10-12T00:26:18.197Z,17.10
2022-10-12T00:26:31.717Z,17.10
2022-10-12T00:26:43.485Z,17.10
2022-10-12T00:26:55.329Z,17.10
2022-10-12T00:27:07.263Z,17.10
2022-10-12T00:27:19.536Z,17.10
2022-10-12T00:27:32.419Z,17.10
2022-10-12T00:27:44.516Z,17.10
2022-10-12T00:27:56.298Z,17.10
2022-10-12T00:28:08.809Z,17.10
2022-10-12T00:28:20.694Z,17.10
2022-10-12T00:28:34.657Z,17.10
2022-10-12T00:28:47.252Z,17.10
2022-10-12T00:29:00.996Z,17.10
2022-10-12T00:29:12.787Z,17.10
2022-10-12T00:30:20.577Z,17.10
2022-10-12T00:30:32.497Z,17.10
2022-10-12T00:30:45.878Z,17.10
2022-10-12T00:30:57.728Z,17.10
2022-10-12T00:31:11.894Z,17.20
2022-10-12T00:31:24.111Z,17.10
2022-10-12T00:31:36.468Z,17.10
2022-10-12T00:31:48.738Z,17.10
2022-10-12T00:32:00.521Z,17.10
2022-10-12T00:32:12.353Z,17.10
2022-10-12T00:32:24.946Z,17.10
2022-10-12T00:32:38.665Z,17.10
2022-10-12T00:32:52.120Z,17.10
2022-10-12T00:33:04.174Z,17.10
2022-10-12T00:33:16.215Z,17.10
2022-10-12T00:33:28.991Z,17.10
2022-10-12T00:33:42.885Z,17.10
2022-10-12T00:33:56.001Z,17.10
2022-10-12T00:34:07.755Z,17.10
2022-10-12T00:34:19.790Z,17.10
2022-10-12T00:34:31.651Z,17.10
2022-10-12T00:34:43.441Z,17.10
2022-10-12T00:34:55.467Z,17.10
2022-10-12T00:35:09.480Z,17.10
2022-10-12T00:35:47.688Z,17.10
2022-10-12T00:36:33.947Z,17.10
2022-10-12T00:36:45.964Z,17.10
2022-10-12T00:36:57.733Z,17.10
2022-10-12T00:37:09.757Z,17.10
2022-10-12T00:37:21.425Z,17.10
2022-10-12T00:37:34.114Z,17.10
2022-10-12T00:37:46.612Z,17.10
2022-10-12T00:38:24.531Z,17.10
2022-10-12T00:38:36.796Z,17.00
2022-10-12T00:38:49.274Z,17.00
2022-10-12T00:39:01.367Z,17.00
2022-10-12T00:39:13.253Z,17.00
2022-10-12T00:39:25.075Z,17.00
2022-10-12T00:39:37.001Z,17.00
2022-10-12T00:39:49.296Z,17.00
2022-10-12T00:40:01.997Z,17.00
2022-10-12T00:40:13.845Z,17.00
2022-10-12T00:40:25.610Z,17.00
2022-10-12T00:40:37.464Z,17.00
2022-10-12T00:41:15.549Z,17.00
2022-10-12T00:41:29.673Z,17.00
2022-10-12T00:41:43.654Z,17.00
2022-10-12T00:41:56.511Z,17.00
2022-10-12T00:42:11.728Z,17.00
2022-10-12T00:42:49.840Z,17.00
2022-10-12T00:43:01.793Z,17.00
2022-10-12T00:43:31.061Z,17.00
2022-10-12T00:43:43.326Z,17.00
2022-10-12T00:43:58.244Z,17.10
2022-10-12T00:44:34.798Z,17.00
2022-10-12T00:44:48.031Z,17.10
2022-10-12T00:44:59.801Z,17.00
2022-10-12T00:45:11.593Z,17.00
2022-10-12T00:45:24.881Z,17.00
2022-10-12T00:45:37.246Z,17.00
2022-10-12T00:45:48.989Z,17.10
2022-10-12T00:46:01.918Z,17.00
2022-10-12T00:46:42.614Z,17.00
2022-10-12T00:46:54.610Z,17.00
2022-10-12T00:47:15.861Z,17.00
2022-10-12T00:47:35.473Z,17.00
2022-10-12T00:47:51.417Z,17.00
2022-10-12T00:48:03.589Z,17.00
2022-10-12T00:48:16.338Z,17.00
2022-10-12T00:48:28.104Z,17.10
2022-10-12T00:48:40.243Z,17.10
2022-10-12T00:48:55.608Z,17.10
2022-10-12T00:49:22.501Z,17.10
2022-10-12T00:49:34.350Z,17.10
2022-10-12T00:49:50.215Z,17.10
2022-10-12T00:50:23.510Z,17.10
2022-10-12T00:50:35.735Z,17.10
2022-10-12T00:50:51.192Z,17.00
2022-10-12T00:51:03.689Z,17.10
2022-10-12T00:51:17.118Z,17.00
2022-10-12T00:51:29.654Z,17.10
2022-10-12T00:51:43.671Z,17.10
2022-10-12T00:51:58.522Z,17.10
2022-10-12T00:52:11.489Z,17.00
2022-10-12T00:52:25.161Z,17.10
2022-10-12T00:52:41.222Z,17.10
2022-10-12T00:53:07.435Z,17.10
2022-10-12T00:53:21.696Z,17.00
2022-10-12T00:53:37.660Z,17.00
2022-10-12T00:53:54.026Z,17.00
2022-10-12T00:54:06.898Z,17.00
2022-10-12T00:54:22.381Z,17.00
2022-10-12T00:54:41.056Z,17.00
2022-10-12T00:54:53.550Z,17.10
2022-10-12T00:55:06.164Z,17.00
2022-10-12T00:55:19.370Z,17.00
2022-10-12T00:55:35.965Z,17.00
2022-10-12T00:55:50.013Z,16.90
2022-10-12T00:56:03.237Z,17.00
2022-10-12T00:56:20.398Z,17.00
2022-10-12T00:56:33.641Z,17.00
2022-10-12T00:56:45.983Z,17.00
2022-10-12T00:56:57.769Z,17.00
2022-10-12T00:57:10.293Z,17.00
2022-10-12T00:57:23.216Z,17.00
2022-10-12T00:57:35.526Z,17.00
2022-10-12T00:57:48.622Z,17.00
2022-10-12T00:58:01.386Z,17.00
2022-10-12T00:58:13.428Z,17.00
2022-10-12T00:58:26.456Z,17.00
2022-10-12T00:58:38.983Z,17.00
2022-10-12T00:58:51.059Z,17.00
2022-10-12T00:59:04.033Z,17.00
2022-10-12T00:59:19.180Z,17.00
2022-10-12T00:59:32.698Z,17.00
2022-10-12T00:59:58.850Z,17.00
2022-10-12T01:00:11.373Z,17.00
2022-10-12T01:00:23.577Z,17.00
2022-10-12T01:00:36.719Z,17.00
2022-10-12T01:00:48.777Z,17.00
2022-10-12T01:01:03.893Z,17.00
2022-10-12T01:01:16.140Z,17.00
2022-10-12T01:01:28.362Z,17.00
2022-10-12T01:01:40.964Z,17.00
2022-10-12T01:01:52.965Z,17.00
2022-10-12T01:02:04.751Z,17.00
2022-10-12T01:02:16.531Z,17.00
2022-10-12T01:02:29.840Z,17.00
2022-10-12T01:02:42.324Z,17.00
2022-10-12T01:02:54.432Z,17.00
2022-10-12T01:03:07.685Z,17.00
2022-10-12T01:03:25.655Z,17.00
2022-10-12T01:03:37.372Z,17.00
2022-10-12T01:03:49.592Z,17.00
2022-10-12T01:04:02.140Z,17.00
2022-10-12T01:04:13.996Z,17.00
2022-10-12T01:04:26.269Z,17.00
2022-10-12T01:04:38.064Z,17.00
2022-10-12T01:04:49.905Z,17.00
2022-10-12T01:05:01.822Z,17.00
2022-10-12T01:05:14.208Z,17.00
2022-10-12T01:05:26.138Z,17.00
2022-10-12T01:05:39.874Z,17.00
2022-10-12T01:05:52.774Z,17.00
2022-10-12T01:06:04.835Z,17.00
2022-10-12T01:06:16.573Z,17.00
2022-10-12T01:06:28.510Z,17.00
2022-10-12T01:06:40.401Z,17.00
2022-10-12T01:06:54.105Z,17.00
2022-10-12T01:07:05.874Z,17.00
2022-10-12T01:07:21.331Z,17.00
2022-10-12T01:07:33.220Z,17.00
2022-10-12T01:07:45.664Z,17.00
2022-10-12T01:07:59.763Z,17.00
2022-10-12T01:08:12.028Z,16.90
2022-10-12T01:08:24.039Z,17.00
2022-10-12T01:08:36.377Z,16.90
2022-10-12T01:08:48.416Z,16.90
2022-10-12T01:09:00.539Z,16.90
2022-10-12T01:09:12.358Z,16.90
2022-10-12T01:09:27.638Z,17.00
2022-10-12T01:09:39.429Z,16.90
2022-10-12T01:09:51.468Z,16.90
2022-10-12T01:10:05.090Z,17.00
2022-10-12T01:10:17.826Z,17.00
2022-10-12T01:10:29.973Z,16.90
2022-10-12T01:10:42.225Z,17.00
2022-10-12T01:10:54.160Z,17.00
2022-10-12T01:11:06.397Z,17.00
2022-10-12T01:11:18.318Z,17.00
2022-10-12T01:11:30.306Z,17.00
2022-10-12T01:11:42.533Z,17.00
2022-10-12T01:11:54.712Z,16.90
2022-10-12T01:12:06.714Z,16.90
2022-10-12T01:12:18.600Z,16.90
2022-10-12T01:12:30.624Z,17.00
2022-10-12T01:12:43.370Z,16.90
2022-10-12T01:12:55.135Z,16.90
2022-10-12T01:13:07.304Z,16.90
2022-10-12T01:13:19.813Z,17.00
2022-10-12T01:13:57.946Z,17.00
2022-10-12T01:14:09.651Z,17.00
2022-10-12T01:14:21.931Z,17.00
2022-10-12T01:14:36.390Z,17.00
2022-10-12T01:14:48.174Z,16.90
2022-10-12T01:15:00.387Z,17.00
2022-10-12T01:15:12.611Z,17.00
2022-10-12T01:15:24.649Z,16.90
2022-10-12T01:15:48.959Z,17.00
2022-10-12T01:16:08.686Z,16.90
2022-10-12T01:16:25.195Z,16.90
2022-10-12T01:16:58.624Z,17.00
2022-10-12T01:17:35.217Z,16.90
2022-10-12T01:18:09.668Z,16.90
2022-10-12T01:18:52.482Z,16.90
2022-10-12T01:19:19.085Z,16.90
2022-10-12T01:19:33.744Z,16.80
2022-10-12T01:20:12.514Z,16.80
2022-10-12T01:20:44.792Z,16.80
2022-10-12T01:21:05.235Z,16.80
2022-10-12T01:21:20.798Z,16.80
2022-10-12T01:21:34.176Z,16.80
2022-10-12T01:21:49.320Z,16.80
2022-10-12T01:22:02.899Z,16.80
2022-10-12T01:22:24.856Z,16.80
2022-10-12T01:22:59.776Z,16.80
2022-10-12T01:23:17.824Z,16.70
2022-10-12T01:24:06.721Z,16.70
2022-10-12T01:24:37.462Z,16.70
2022-10-12T01:25:07.680Z,16.60
2022-10-12T01:25:25.543Z,16.70
2022-10-12T01:25:52.757Z,16.70
2022-10-12T01:26:39.312Z,16.70
2022-10-12T01:26:59.602Z,16.60
2022-10-12T01:27:23.245Z,16.70
2022-10-12T01:27:46.146Z,16.70
2022-10-12T01:28:07.594Z,16.70
2022-10-12T01:28:26.583Z,16.70
2022-10-12T01:28:57.574Z,16.70
2022-10-12T01:29:39.881Z,16.70
2022-10-12T01:30:16.270Z,16.70
2022-10-12T01:30:31.986Z,16.60
2022-10-12T01:30:44.659Z,16.50
2022-10-12T01:31:00.022Z,16.50
2022-10-12T01:31:20.584Z,16.50
2022-10-12T01:31:42.300Z,16.50
2022-10-12T01:32:12.066Z,16.50
2022-10-12T01:32:42.116Z,16.50
2022-10-12T01:33:19.872Z,16.50
2022-10-12T01:33:33.579Z,16.50
2022-10-12T01:33:48.691Z,16.50
2022-10-12T01:34:18.727Z,16.50
2022-10-12T01:34:39.404Z,16.50
2022-10-12T01:35:02.128Z,16.50
2022-10-12T01:35:29.052Z,16.50
2022-10-12T01:35:59.050Z,16.50
2022-10-12T01:36:26.973Z,16.50
2022-10-12T01:37:05.489Z,16.50
2022-10-12T01:37:40.563Z,16.50
2022-10-12T01:38:05.492Z,16.50
2022-10-12T01:38:20.472Z,16.50
2022-10-12T01:38:38.327Z,16.60
2022-10-12T01:39:16.629Z,16.60
2022-10-12T01:39:42.034Z,16.60
2022-10-12T01:39:54.720Z,16.60
2022-10-12T01:40:09.207Z,16.60
2022-10-12T01:40:31.314Z,16.60
2022-10-12T01:40:55.388Z,16.60
2022-10-12T01:41:36.439Z,16.60
2022-10-12T01:41:50.721Z,16.60
2022-10-12T01:42:04.887Z,16.60
2022-10-12T01:42:20.505Z,16.60
2022-10-12T01:42:33.342Z,16.70
2022-10-12T01:42:45.077Z,16.60
2022-10-12T01:42:57.919Z,16.60
2022-10-12T01:43:10.638Z,16.60
2022-10-12T01:43:23.660Z,16.70
2022-10-12T01:43:39.807Z,16.60
2022-10-12T01:43:52.411Z,16.70
2022-10-12T01:44:04.799Z,16.70
2022-10-12T01:44:24.035Z,16.70
2022-10-12T01:44:40.540Z,16.70
2022-10-12T01:45:07.322Z,16.70
2022-10-12T01:45:19.896Z,16.70
2022-10-12T01:45:31.954Z,16.60
2022-10-12T01:45:43.737Z,16.70
2022-10-12T01:45:57.259Z,16.60
2022-10-12T01:46:20.956Z,16.70
2022-10-12T01:46:32.688Z,16.70
2022-10-12T01:46:44.909Z,16.60
2022-10-12T01:46:59.311Z,16.70
2022-10-12T01:47:11.474Z,16.70
2022-10-12T01:47:23.917Z,16.60
2022-10-12T01:47:36.340Z,16.70
2022-10-12T01:47:53.304Z,16.70
2022-10-12T01:48:05.444Z,16.70
2022-10-12T01:48:19.094Z,16.60
2022-10-12T01:48:30.982Z,16.70
2022-10-12T01:48:44.245Z,16.60
2022-10-12T01:48:58.977Z,16.70
2022-10-12T01:49:11.105Z,16.60
2022-10-12T01:49:27.670Z,16.60
2022-10-12T01:49:39.554Z,16.70
2022-10-12T01:49:51.251Z,16.70
2022-10-12T01:50:03.520Z,16.70
2022-10-12T01:50:15.594Z,16.70
2022-10-12T01:50:43.966Z,16.70
2022-10-12T01:50:56.030Z,16.70
2022-10-12T01:51:07.822Z,16.60
2022-10-12T01:51:45.297Z,16.60
2022-10-12T01:52:02.690Z,16.60
2022-10-12T01:52:35.792Z,16.60
2022-10-12T01:53:06.833Z,16.60
2022-10-12T01:53:23.030Z,16.60
2022-10-12T01:53:56.877Z,16.50
2022-10-12T01:54:21.506Z,16.50
2022-10-12T01:54:39.435Z,16.50
2022-10-12T01:55:15.232Z,16.50
2022-10-12T01:55:41.556Z,16.50
2022-10-12T01:55:58.515Z,16.50
2022-10-12T01:56:32.602Z,16.50
2022-10-12T01:56:57.846Z,16.50
2022-10-12T01:57:21.871Z,16.50
2022-10-12T01:57:42.270Z,16.50
2022-10-12T01:58:02.562Z,16.50
2022-10-12T01:58:14.221Z,16.50
2022-10-12T01:58:29.615Z,16.50
2022-10-12T01:59:02.435Z,16.50
2022-10-12T01:59:44.432Z,16.50
2022-10-12T02:00:14.831Z,16.50
2022-10-12T02:00:26.597Z,16.50
2022-10-12T02:00:42.816Z,16.50
2022-10-12T02:01:12.567Z,16.50
2022-10-12T02:01:30.255Z,16.50
2022-10-12T02:01:43.348Z,16.50
2022-10-12T02:02:03.964Z,16.50
2022-10-12T02:02:18.966Z,16.50
2022-10-12T02:02:37.236Z,16.50
2022-10-12T02:02:49.022Z,16.50
2022-10-12T02:03:20.141Z,16.50
2022-10-12T02:03:51.592Z,16.50
2022-10-12T02:04:15.793Z,16.40
2022-10-12T02:04:36.564Z,16.40
2022-10-12T02:05:22.817Z,16.40
2022-10-12T02:05:43.361Z,16.40
2022-10-12T02:05:58.340Z,16.30
2022-10-12T02:06:12.620Z,16.30
2022-10-12T02:06:28.699Z,16.30
2022-10-12T02:06:43.852Z,16.30
2022-10-12T02:07:04.551Z,16.30
2022-10-12T02:07:46.847Z,16.30
2022-10-12T02:08:13.561Z,16.30
2022-10-12T02:08:34.744Z,16.30
2022-10-12T02:08:55.966Z,16.30
2022-10-12T02:09:27.169Z,16.30
2022-10-12T02:09:38.964Z,16.30
2022-10-12T02:09:50.623Z,16.30
2022-10-12T02:10:02.409Z,16.30
2022-10-12T02:10:22.574Z,16.30
2022-10-12T02:10:40.294Z,16.30
2022-10-12T02:10:52.204Z,16.30
2022-10-12T02:11:16.688Z,16.30
2022-10-12T02:11:28.435Z,16.30
2022-10-12T02:11:40.726Z,16.30
2022-10-12T02:11:53.428Z,16.30
2022-10-12T02:12:08.585Z,16.30
2022-10-12T02:12:21.168Z,16.40
2022-10-12T02:12:32.932Z,16.40
2022-10-12T02:12:44.759Z,16.40
2022-10-12T02:12:56.559Z,16.40
2022-10-12T02:13:09.721Z,16.40
2022-10-12T02:13:22.417Z,16.30
2022-10-12T02:13:36.590Z,16.40
2022-10-12T02:13:50.994Z,16.40
2022-10-12T02:14:15.330Z,16.40
2022-10-12T02:14:32.453Z,16.40
2022-10-12T02:14:47.382Z,16.40
2022-10-12T02:15:00.509Z,16.40
2022-10-12T02:15:12.600Z,16.40
2022-10-12T02:15:24.496Z,16.40
2022-10-12T02:15:36.981Z,16.40
2022-10-12T02:15:49.171Z,16.40
2022-10-12T02:16:01.133Z,16.40
2022-10-12T02:16:14.881Z,16.40
2022-10-12T02:16:30.766Z,16.40
2022-10-12T02:16:44.885Z,16.40
2022-10-12T02:17:00.469Z,16.40
2022-10-12T02:17:13.848Z,16.40
2022-10-12T02:17:25.849Z,16.40
2022-10-12T02:17:38.118Z,16.40
2022-10-12T02:17:50.240Z,16.40
2022-10-12T02:18:03.344Z,16.40
2022-10-12T02:18:16.899Z,16.40
2022-10-12T02:18:28.711Z,16.40
2022-10-12T02:18:47.078Z,16.40
2022-10-12T02:18:58.840Z,16.40
2022-10-12T02:19:11.439Z,16.40
2022-10-12T02:19:28.086Z,16.40
2022-10-12T02:19:41.635Z,16.40
2022-10-12T02:19:57.693Z,16.40
2022-10-12T02:20:10.260Z,16.40
2022-10-12T02:20:23.145Z,16.40
2022-10-12T02:20:34.970Z,16.40
2022-10-12T02:20:47.415Z,16.40
2022-10-12T02:20:59.198Z,16.40
2022-10-12T02:21:12.312Z,16.40
2022-10-12T02:21:30.530Z,16.40
2022-10-12T02:21:42.264Z,16.40
2022-10-12T02:21:55.314Z,16.40
2022-10-12T02:22:08.274Z,16.40
2022-10-12T02:22:20.067Z,16.40
2022-10-12T02:22:36.203Z,16.40
2022-10-12T02:22:48.853Z,16.40
2022-10-12T02:23:00.585Z,16.40
2022-10-12T02:23:12.588Z,16.40
2022-10-12T02:23:24.524Z,16.40
2022-10-12T02:23:36.656Z,16.40
2022-10-12T02:23:48.609Z,16.40
2022-10-12T02:24:01.777Z,16.40
2022-10-12T02:24:13.764Z,16.40
2022-10-12T02:24:26.605Z,16.40
2022-10-12T02:24:39.578Z,16.40
2022-10-12T02:24:51.370Z,16.40
2022-10-12T02:25:05.590Z,16.40
2022-10-12T02:25:20.010Z,16.40
2022-10-12T02:25:32.024Z,16.40
2022-10-12T02:25:44.023Z,16.40
2022-10-12T02:25:56.162Z,16.40
2022-10-12T02:26:08.308Z,16.40
2022-10-12T02:26:20.678Z,16.50
2022-10-12T02:26:33.770Z,16.40
2022-10-12T02:26:45.645Z,16.50
2022-10-12T02:26:57.645Z,16.40
2022-10-12T02:27:10.003Z,16.50
2022-10-12T02:27:21.742Z,16.40
2022-10-12T02:27:34.957Z,16.50
2022-10-12T02:27:56.234Z,16.40
2022-10-12T02:28:12.356Z,16.40
2022-10-12T02:28:24.447Z,16.40
2022-10-12T02:28:36.356Z,16.40
2022-10-12T02:28:48.180Z,16.40
2022-10-12T02:29:00.880Z,16.40
2022-10-12T02:29:17.755Z,16.40
2022-10-12T02:29:40.009Z,16.40
2022-10-12T02:29:51.668Z,16.50
2022-10-12T02:30:03.750Z,16.50
2022-10-12T02:30:15.706Z,16.50
2022-10-12T02:30:27.932Z,16.50
2022-10-12T02:30:50.797Z,16.50
2022-10-12T02:31:04.579Z,16.50
2022-10-12T02:31:40.820Z,16.50
2022-10-12T02:32:14.851Z,16.50
2022-10-12T02:32:35.335Z,16.50
2022-10-12T02:32:59.915Z,16.50
2022-10-12T02:33:15.093Z,16.40
2022-10-12T02:33:42.405Z,16.50
2022-10-12T02:34:31.021Z,16.50
2022-10-12T02:35:01.583Z,16.50
2022-10-12T02:35:18.440Z,16.50
2022-10-12T02:35:37.428Z,16.50
2022-10-12T02:35:52.803Z,16.50
2022-10-12T02:36:20.110Z,16.50
2022-10-12T02:36:38.716Z,16.50
2022-10-12T02:36:53.021Z,16.50
2022-10-12T02:37:07.508Z,16.50
2022-10-12T02:37:28.802Z,16.40
2022-10-12T02:37:52.913Z,16.40
2022-10-12T02:38:19.530Z,16.50
2022-10-12T02:38:43.745Z,16.50
2022-10-12T02:39:01.284Z,16.50
2022-10-12T02:39:21.473Z,16.50
2022-10-12T02:39:38.095Z,16.50
2022-10-12T02:39:56.540Z,16.50
2022-10-12T02:40:26.341Z,16.50
2022-10-12T02:40:47.346Z,16.50
2022-10-12T02:41:01.959Z,16.50
2022-10-12T02:41:19.463Z,16.50
2022-10-12T02:41:35.971Z,16.50
2022-10-12T02:41:50.534Z,16.50
2022-10-12T02:42:05.937Z,16.50
2022-10-12T02:42:46.565Z,16.50
2022-10-12T02:43:33.564Z,16.50
2022-10-12T02:43:51.432Z,16.50
2022-10-12T02:44:05.590Z,16.50
2022-10-12T02:44:21.040Z,16.50
2022-10-12T02:44:33.732Z,16.50
2022-10-12T02:44:45.458Z,16.50
2022-10-12T02:44:57.749Z,16.50
2022-10-12T02:45:10.692Z,16.50
2022-10-12T02:45:23.061Z,16.50
2022-10-12T02:45:35.193Z,16.50
2022-10-12T02:45:47.470Z,16.60
2022-10-12T02:45:59.453Z,16.50
2022-10-12T02:46:11.346Z,16.50
2022-10-12T02:46:23.466Z,16.50
2022-10-12T02:46:35.410Z,16.50
2022-10-12T02:46:47.568Z,16.50
2022-10-12T02:46:59.314Z,16.60
2022-10-12T02:47:11.413Z,16.60
2022-10-12T02:47:24.184Z,16.50
2022-10-12T02:47:37.205Z,16.60
2022-10-12T02:47:49.329Z,16.60
2022-10-12T02:48:01.084Z,16.60
2022-10-12T02:48:16.365Z,16.60
2022-10-12T02:48:28.438Z,16.60
2022-10-12T02:48:40.524Z,16.50
2022-10-12T02:48:52.553Z,16.60
2022-10-12T02:49:04.338Z,16.60
2022-10-12T02:49:16.229Z,16.50
2022-10-12T02:49:28.084Z,16.60
2022-10-12T02:49:39.810Z,16.60
2022-10-12T02:49:51.865Z,16.60
2022-10-12T02:50:04.054Z,16.50
2022-10-12T02:50:15.927Z,16.50
2022-10-12T02:50:27.750Z,16.60
2022-10-12T02:50:39.703Z,16.60
2022-10-12T02:50:54.922Z,16.60
2022-10-12T02:51:07.681Z,16.60
2022-10-12T02:51:19.765Z,16.60
2022-10-12T02:51:31.695Z,16.60
2022-10-12T02:51:43.877Z,16.60
2022-10-12T02:51:55.670Z,16.60
2022-10-12T02:52:07.534Z,16.60
2022-10-12T02:52:19.325Z,16.60
2022-10-12T02:52:31.529Z,16.60
2022-10-12T02:52:43.262Z,16.60
2022-10-12T02:52:55.060Z,16.60
2022-10-12T02:53:06.963Z,16.60
2022-10-12T02:53:18.737Z,16.60
2022-10-12T02:53:30.900Z,16.60
2022-10-12T02:53:45.328Z,16.60
2022-10-12T02:53:57.403Z,16.60
2022-10-12T02:54:09.970Z,16.60
2022-10-12T02:54:21.735Z,16.60
2022-10-12T02:54:33.610Z,16.60
2022-10-12T02:54:45.507Z,16.60
2022-10-12T02:54:57.647Z,16.60
2022-10-12T02:55:09.364Z,16.60
2022-10-12T02:55:21.276Z,16.70
2022-10-12T02:55:37.967Z,16.60
2022-10-12T02:55:50.061Z,16.60
2022-10-12T02:56:04.498Z,16.60
2022-10-12T02:56:16.218Z,16.60
2022-10-12T02:56:28.008Z,16.60
2022-10-12T02:56:44.521Z,16.60
2022-10-12T02:56:56.259Z,16.60
2022-10-12T02:57:08.143Z,16.60
2022-10-12T02:57:19.881Z,16.60
2022-10-12T02:57:31.583Z,16.60
2022-10-12T02:57:43.337Z,16.60
2022-10-12T02:57:55.127Z,16.60
2022-10-12T02:58:06.832Z,16.60
2022-10-12T02:58:18.668Z,16.60
2022-10-12T02:58:30.390Z,16.60
2022-10-12T02:58:46.115Z,16.60
2022-10-12T02:58:57.868Z,16.60
2022-10-12T02:59:09.613Z,16.60
2022-10-12T02:59:21.793Z,16.60
2022-10-12T02:59:34.062Z,16.60
2022-10-12T02:59:46.080Z,16.60
2022-10-12T02:59:57.792Z,16.60
2022-10-12T03:00:10.164Z,16.60
2022-10-12T03:00:22.051Z,16.60
2022-10-12T03:00:33.815Z,16.60
2022-10-12T03:00:45.804Z,16.60
2022-10-12T03:00:57.636Z,16.60
2022-10-12T03:01:09.616Z,16.60
2022-10-12T03:01:21.560Z,16.60
2022-10-12T03:01:33.679Z,16.60
2022-10-12T03:01:45.554Z,16.60
2022-10-12T03:01:57.552Z,16.60
2022-10-12T03:02:10.826Z,16.60
2022-10-12T03:02:22.580Z,16.60
2022-10-12T03:02:34.298Z,16.50
2022-10-12T03:02:46.348Z,16.60
2022-10-12T03:02:59.368Z,16.60
2022-10-12T03:03:11.109Z,16.60
2022-10-12T03:03:23.065Z,16.50
2022-10-12T03:03:34.868Z,16.60
2022-10-12T03:03:46.634Z,16.60
2022-10-12T03:03:58.549Z,16.60
2022-10-12T03:04:10.546Z,16.60
2022-10-12T03:04:22.483Z,16.60
2022-10-12T03:04:34.278Z,16.60
2022-10-12T03:04:46.371Z,16.60
2022-10-12T03:04:58.097Z,16.60
2022-10-12T03:05:11.517Z,16.60
2022-10-12T03:05:23.306Z,16.60
2022-10-12T03:05:35.062Z,16.60
2022-10-12T03:05:46.772Z,16.60
2022-10-12T03:05:58.514Z,16.60
2022-10-12T03:06:10.304Z,16.60
2022-10-12T03:06:22.376Z,16.50
2022-10-12T03:06:34.184Z,16.50
2022-10-12T03:06:46.056Z,16.50
2022-10-12T03:06:57.799Z,16.50
2022-10-12T03:07:09.902Z,16.50
2022-10-12T03:07:21.606Z,16.50
2022-10-12T03:07:33.588Z,16.50
2022-10-12T03:07:45.338Z,16.50
2022-10-12T03:07:57.117Z,16.50
2022-10-12T03:08:08.864Z,16.50
2022-10-12T03:08:20.718Z,16.50
2022-10-12T03:08:32.513Z,16.50
2022-10-12T03:08:44.254Z,16.60
2022-10-12T03:08:57.299Z,16.50
2022-10-12T03:09:09.801Z,16.60
2022-10-12T03:09:21.681Z,16.60
2022-10-12T03:09:33.406Z,16.60
2022-10-12T03:09:45.128Z,16.50
2022-10-12T03:09:56.874Z,16.50
2022-10-12T03:10:09.246Z,16.60
2022-10-12T03:10:21.005Z,16.50
2022-10-12T03:10:32.767Z,16.50
2022-10-12T03:10:44.545Z,16.50
2022-10-12T03:11:02.350Z,16.50
2022-10-12T03:11:14.712Z,16.50
2022-10-12T03:11:26.487Z,16.50
2022-10-12T03:11:38.269Z,16.50
2022-10-12T03:11:50.036Z,16.50
2022-10-12T03:12:02.247Z,16.50
2022-10-12T03:12:13.977Z,16.50
2022-10-12T03:12:25.718Z,16.50
2022-10-12T03:12:37.593Z,16.50
2022-10-12T03:12:50.461Z,16.50
2022-10-12T03:13:02.365Z,16.50
2022-10-12T03:13:14.163Z,16.50
2022-10-12T03:13:25.934Z,16.50
2022-10-12T03:13:38.474Z,16.50
2022-10-12T03:13:56.720Z,16.50
2022-10-12T03:14:12.807Z,16.50
2022-10-12T03:14:27.032Z,16.50
2022-10-12T03:14:38.867Z,16.50
2022-10-12T03:14:50.580Z,16.50
2022-10-12T03:15:02.501Z,16.50
2022-10-12T03:15:14.374Z,16.50
2022-10-12T03:15:26.088Z,16.50
2022-10-12T03:15:37.910Z,16.50
2022-10-12T03:15:49.586Z,16.50
2022-10-12T03:16:04.922Z,16.50
2022-10-12T03:16:16.743Z,16.50
2022-10-12T03:16:28.809Z,16.50
2022-10-12T03:16:40.907Z,16.50
2022-10-12T03:16:52.882Z,16.50
2022-10-12T03:17:04.940Z,16.50
2022-10-12T03:17:16.669Z,16.50
2022-10-12T03:17:28.409Z,16.50
2022-10-12T03:17:40.476Z,16.50
2022-10-12T03:17:52.449Z,16.50
2022-10-12T03:18:04.365Z,16.50
2022-10-12T03:18:16.346Z,16.50
2022-10-12T03:18:28.059Z,16.50
2022-10-12T03:18:40.193Z,16.50
2022-10-12T03:18:52.841Z,16.50
2022-10-12T03:19:04.738Z,16.50
2022-10-12T03:19:17.206Z,16.50
2022-10-12T03:19:29.608Z,16.50
2022-10-12T03:19:42.107Z,16.50
2022-10-12T03:19:54.062Z,16.50
2022-10-12T03:20:06.444Z,16.50
2022-10-12T03:20:18.398Z,16.50
2022-10-12T03:20:30.389Z,16.50